Minden, Texas
Current Conditions -  °F | °C
As of 12:35 AM on Friday 19 Dec 2014 (Local Time) from KRFI Reporting Station
Haze Haze  
Wind Chill: 45°   Ceiling: 300
Heat Index: 48°   Visibility: 3mi
Dew Point: 48°   Wind: 8mph
Humidity: 100%   Direction: 50°NE
Pressure: 30.13"   Gusts: NA
Location:  32.01°N, 94.71°W
Report Text: KRFI 190635Z AUTO 05007KT 3SM BR OVC003 09/09 A3013 RMK AO2 LTG DSNT S T00910091
Loading
Personal Weather Stations






























Interactive Weather Map New forecast layout! Learn more

10-Day Weather Forecast

Advertisements
Track Severe Weather on mobile